createdAt,value
2023-03-18T00:02:24.132Z,48.35
2023-03-18T00:05:11.737Z,48.37
2023-03-18T00:07:58.262Z,47.99
2023-03-18T00:10:44.918Z,47.79
2023-03-18T00:13:31.895Z,47.71
2023-03-18T00:16:21.337Z,47.93
2023-03-18T00:19:08.448Z,48.24
2023-03-18T00:21:55.885Z,47.97
2023-03-18T00:24:42.528Z,47.74
2023-03-18T00:27:30.277Z,48.46
2023-03-18T00:30:17.323Z,48.19
2023-03-18T00:33:05.655Z,47.82
2023-03-18T00:35:53.382Z,48.79
2023-03-18T00:38:41.235Z,48.07
2023-03-18T00:41:29.104Z,48.53
2023-03-18T00:44:16.032Z,48.16
2023-03-18T00:47:02.939Z,47.96
2023-03-18T00:49:51.499Z,47.63
2023-03-18T00:52:39.725Z,47.95
2023-03-18T00:55:26.475Z,47.87
2023-03-18T00:58:13.764Z,48.18
2023-03-18T01:01:00.423Z,48.03
2023-03-18T01:03:49.605Z,48.12
2023-03-18T01:06:39.161Z,48.32
2023-03-18T01:09:28.804Z,49.14
2023-03-18T01:12:15.703Z,48.44
2023-03-18T01:15:03.212Z,49.24
2023-03-18T01:17:50.922Z,48.60
2023-03-18T01:20:38.074Z,48.49
2023-03-18T01:23:26.505Z,48.66
2023-03-18T01:26:13.324Z,49.18
2023-03-18T01:29:03.856Z,49.35
2023-03-18T01:31:51.530Z,49.69
2023-03-18T01:34:38.002Z,49.03
2023-03-18T01:37:25.157Z,49.68
2023-03-18T01:40:23.917Z,49.78
2023-03-18T01:43:18.056Z,49.50
2023-03-18T01:46:38.311Z,49.31
2023-03-18T01:49:30.463Z,49.73
2023-03-18T01:52:20.540Z,48.91
2023-03-18T01:55:10.609Z,48.83
2023-03-18T01:58:01.482Z,49.13
2023-03-18T02:00:54.865Z,49.53
2023-03-18T02:03:43.012Z,49.00
2023-03-18T02:06:30.750Z,49.07
2023-03-18T02:09:20.539Z,48.62
2023-03-18T02:12:09.560Z,49.14
2023-03-18T02:14:58.754Z,48.88
2023-03-18T02:17:54.830Z,49.46
2023-03-18T02:20:52.849Z,48.87
2023-03-18T02:23:49.205Z,49.28
2023-03-18T02:26:46.265Z,48.79
2023-03-18T02:29:37.909Z,48.96
2023-03-18T02:32:32.544Z,49.38
2023-03-18T02:35:21.943Z,48.94
2023-03-18T02:38:10.360Z,48.67
2023-03-18T02:40:57.182Z,48.35
2023-03-18T02:43:50.853Z,49.03
2023-03-18T02:46:49.194Z,49.55
2023-03-18T02:49:36.081Z,49.07
2023-03-18T02:52:22.863Z,49.56
2023-03-18T02:55:10.258Z,48.72
2023-03-18T02:57:57.509Z,49.13
2023-03-18T03:00:44.673Z,49.52
2023-03-18T03:03:32.909Z,48.87
2023-03-18T03:06:19.807Z,48.52
2023-03-18T03:09:09.192Z,49.14
2023-03-18T03:11:56.313Z,48.68
2023-03-18T03:14:45.254Z,48.95
2023-03-18T03:17:33.810Z,50.19
2023-03-18T03:20:22.223Z,49.18
2023-03-18T03:23:11.350Z,50.11
2023-03-18T03:25:58.472Z,50.01
2023-03-18T03:28:46.495Z,50.35
2023-03-18T03:31:33.606Z,49.75
2023-03-18T03:34:20.666Z,50.05
2023-03-18T03:37:09.183Z,49.40
2023-03-18T03:39:55.914Z,49.83
2023-03-18T03:42:45.054Z,50.37
2023-03-18T03:45:31.860Z,50.65
2023-03-18T03:48:19.510Z,50.61
2023-03-18T03:51:07.155Z,50.49
2023-03-18T03:53:55.244Z,50.07
2023-03-18T03:56:42.949Z,51.31
2023-03-18T03:59:29.812Z,51.21
2023-03-18T04:02:30.749Z,52.17
2023-03-18T04:05:21.767Z,51.82
2023-03-18T04:08:08.498Z,51.39
2023-03-18T04:10:59.578Z,50.79
2023-03-18T04:13:46.995Z,50.48
2023-03-18T04:16:34.153Z,51.11
2023-03-18T04:19:20.913Z,51.06
2023-03-18T04:22:07.963Z,50.86
2023-03-18T04:24:54.915Z,50.97
2023-03-18T04:27:43.759Z,52.64
2023-03-18T04:30:32.996Z,51.40
2023-03-18T04:33:24.401Z,52.46
2023-03-18T04:36:11.635Z,51.24
2023-03-18T04:38:58.739Z,51.61
2023-03-18T04:41:45.344Z,52.19
2023-03-18T04:44:33.521Z,51.26
2023-03-18T04:47:20.243Z,51.82
2023-03-18T04:50:12.470Z,51.15
2023-03-18T04:53:00.278Z,51.06
2023-03-18T04:55:50.770Z,51.18
2023-03-18T04:58:39.222Z,50.62
2023-03-18T05:01:35.450Z,50.97
2023-03-18T05:04:22.338Z,52.60
2023-03-18T05:07:14.668Z,52.03
2023-03-18T05:10:07.189Z,51.34
2023-03-18T05:12:54.204Z,52.02
2023-03-18T05:15:48.723Z,52.35
2023-03-18T05:18:37.837Z,51.97
2023-03-18T05:21:25.768Z,51.86
2023-03-18T05:24:12.580Z,52.93
2023-03-18T05:27:01.613Z,52.55
2023-03-18T05:29:54.567Z,52.10
2023-03-18T05:32:52.879Z,52.55
2023-03-18T05:35:46.418Z,51.92
2023-03-18T05:38:34.059Z,52.15
2023-03-18T05:41:22.416Z,52.08
2023-03-18T05:44:09.180Z,51.55
2023-03-18T05:46:58.663Z,52.09
2023-03-18T05:50:04.403Z,51.68
2023-03-18T05:52:54.450Z,51.45
2023-03-18T05:55:44.593Z,51.80
2023-03-18T05:58:31.656Z,51.48
2023-03-18T06:01:34.672Z,51.71
2023-03-18T06:04:22.050Z,51.63
2023-03-18T06:07:08.968Z,51.62
2023-03-18T06:09:57.870Z,52.76
2023-03-18T06:12:44.674Z,52.05
2023-03-18T06:15:32.577Z,52.00
2023-03-18T06:18:20.286Z,53.05
2023-03-18T06:21:09.889Z,52.96
2023-03-18T06:23:56.698Z,51.27
2023-03-18T06:26:46.584Z,54.23
2023-03-18T06:29:34.313Z,52.12
2023-03-18T06:32:28.259Z,52.99
2023-03-18T06:35:16.801Z,52.90
2023-03-18T06:38:04.341Z,51.92
2023-03-18T06:40:54.719Z,51.65
2023-03-18T06:43:43.366Z,52.26
2023-03-18T06:46:30.573Z,54.00
2023-03-18T06:49:18.972Z,52.10
2023-03-18T06:52:13.634Z,52.21
2023-03-18T06:55:03.421Z,52.78
2023-03-18T06:57:50.186Z,52.11
2023-03-18T07:00:45.444Z,52.91
2023-03-18T07:03:37.666Z,52.39
2023-03-18T07:06:25.310Z,52.47
2023-03-18T07:09:12.740Z,54.09
2023-03-18T07:12:01.078Z,53.16
2023-03-18T07:14:48.669Z,52.71
2023-03-18T07:17:39.203Z,52.51
2023-03-18T07:20:25.923Z,52.13
2023-03-18T07:23:13.226Z,51.69
2023-03-18T07:26:00.148Z,51.57
2023-03-18T07:28:47.143Z,51.19
2023-03-18T07:31:33.694Z,50.84
2023-03-18T07:34:21.846Z,51.12
2023-03-18T07:37:08.752Z,50.93
2023-03-18T07:39:56.288Z,49.76
2023-03-18T07:42:43.009Z,50.08
2023-03-18T07:45:30.271Z,50.38
2023-03-18T07:48:17.087Z,49.78
2023-03-18T07:51:05.805Z,50.35
2023-03-18T07:53:52.787Z,49.33
2023-03-18T07:56:39.899Z,49.25
2023-03-18T07:59:26.639Z,50.20
2023-03-18T08:02:15.977Z,50.49
2023-03-18T08:05:03.569Z,48.64
2023-03-18T08:07:51.491Z,47.96
2023-03-18T08:10:38.373Z,47.27
2023-03-18T08:13:25.909Z,46.21
2023-03-18T08:16:12.563Z,45.09
2023-03-18T08:18:59.246Z,44.12
2023-03-18T08:21:46.124Z,43.06
2023-03-18T08:24:34.558Z,41.70
2023-03-18T08:27:21.119Z,42.28
2023-03-18T08:30:09.275Z,41.50
2023-03-18T08:32:57.412Z,42.44
2023-03-18T08:35:44.118Z,41.72
2023-03-18T08:38:30.878Z,42.14
2023-03-18T08:41:19.170Z,43.43
2023-03-18T08:44:08.471Z,43.81
2023-03-18T08:46:55.279Z,42.42
2023-03-18T08:49:42.172Z,43.11
2023-03-18T08:52:28.958Z,43.21
2023-03-18T08:55:16.348Z,43.89
2023-03-18T08:58:04.423Z,44.12
2023-03-18T09:00:51.100Z,43.01
2023-03-18T09:03:37.970Z,43.68
2023-03-18T09:06:24.881Z,45.00
2023-03-18T09:09:11.787Z,44.38
2023-03-18T09:11:59.846Z,44.96
2023-03-18T09:14:47.366Z,44.85
2023-03-18T09:17:50.947Z,45.32
2023-03-18T09:20:41.052Z,45.42
2023-03-18T09:23:28.601Z,46.20
2023-03-18T09:26:15.345Z,45.90
2023-03-18T09:29:03.660Z,46.07
2023-03-18T09:31:50.788Z,45.48
2023-03-18T09:34:37.773Z,46.41
2023-03-18T09:37:24.616Z,46.17
2023-03-18T09:40:19.265Z,45.44
2023-03-18T09:43:23.018Z,45.03
2023-03-18T09:46:19.491Z,47.67
2023-03-18T09:49:44.044Z,47.81
2023-03-18T09:52:33.983Z,46.39
2023-03-18T09:55:27.436Z,46.05
2023-03-18T09:58:21.650Z,45.02
2023-03-18T10:01:13.649Z,45.49
2023-03-18T10:04:05.667Z,45.17
2023-03-18T10:06:58.148Z,45.93
2023-03-18T10:09:48.342Z,45.28
2023-03-18T10:12:37.729Z,46.84
2023-03-18T10:15:32.052Z,46.18
2023-03-18T10:18:28.008Z,45.76
2023-03-18T10:21:23.903Z,46.84
2023-03-18T10:24:25.462Z,46.63
2023-03-18T10:27:19.226Z,45.43
2023-03-18T10:30:23.373Z,44.83
2023-03-18T10:33:18.037Z,44.75
2023-03-18T10:36:14.115Z,44.25
2023-03-18T10:39:02.854Z,45.40
2023-03-18T10:41:51.122Z,46.85
2023-03-18T10:44:41.892Z,45.25
2023-03-18T10:47:33.905Z,45.84
2023-03-18T10:50:25.500Z,45.36
2023-03-18T10:53:20.997Z,43.07
2023-03-18T10:56:09.610Z,43.70
2023-03-18T10:58:57.614Z,42.88
2023-03-18T11:01:48.416Z,42.68
2023-03-18T11:04:42.471Z,44.58
2023-03-18T11:07:30.210Z,43.57
2023-03-18T11:10:25.621Z,44.29
2023-03-18T11:13:17.860Z,45.15
2023-03-18T11:16:04.891Z,44.71
2023-03-18T11:18:52.864Z,43.53
2023-03-18T11:21:39.549Z,45.70
2023-03-18T11:24:36.413Z,44.58
2023-03-18T11:27:34.492Z,44.28
2023-03-18T11:30:38.321Z,44.16
2023-03-18T11:33:27.113Z,44.43
2023-03-18T11:36:19.451Z,44.78
2023-03-18T11:39:08.175Z,46.64
2023-03-18T11:41:55.199Z,45.66
2023-03-18T11:44:43.059Z,46.13
2023-03-18T11:47:35.225Z,46.09
2023-03-18T11:50:25.645Z,45.08
2023-03-18T11:53:18.426Z,45.84
2023-03-18T11:56:16.756Z,47.92
2023-03-18T11:59:15.881Z,47.44
2023-03-18T12:02:22.816Z,46.38
2023-03-18T12:05:35.740Z,44.80
2023-03-18T12:08:34.300Z,44.91
2023-03-18T12:11:28.833Z,44.02
2023-03-18T12:14:22.974Z,45.24
2023-03-18T12:17:23.592Z,45.71
2023-03-18T12:20:26.163Z,46.18
2023-03-18T12:23:30.946Z,46.04
2023-03-18T12:26:27.534Z,46.23
2023-03-18T12:29:39.285Z,46.32
2023-03-18T12:32:31.256Z,47.56
2023-03-18T12:35:29.057Z,45.45
2023-03-18T12:38:49.781Z,45.89
2023-03-18T12:41:49.725Z,46.03
2023-03-18T12:44:53.202Z,45.06
2023-03-18T12:47:46.336Z,45.54
2023-03-18T12:50:38.326Z,45.80
2023-03-18T12:53:29.885Z,46.12
2023-03-18T12:56:20.149Z,46.03
2023-03-18T12:59:10.696Z,45.04
2023-03-18T13:02:11.159Z,46.31
2023-03-18T13:05:03.514Z,46.01
2023-03-18T13:08:03.424Z,45.05
2023-03-18T13:10:58.590Z,45.46
2023-03-18T13:13:51.133Z,46.19
2023-03-18T13:16:39.501Z,45.54
2023-03-18T13:19:27.201Z,45.97
2023-03-18T13:22:44.092Z,46.59
2023-03-18T13:25:41.166Z,47.77
2023-03-18T13:28:43.990Z,46.63
2023-03-18T13:31:40.894Z,47.21
2023-03-18T13:34:56.445Z,47.21
2023-03-18T13:38:07.786Z,47.22
2023-03-18T13:41:12.874Z,46.90
2023-03-18T13:44:01.996Z,46.23
2023-03-18T13:47:02.817Z,46.10
2023-03-18T13:49:51.104Z,46.55
2023-03-18T13:52:43.141Z,46.93
2023-03-18T13:55:35.189Z,46.30
2023-03-18T13:58:26.077Z,47.33
2023-03-18T14:01:33.523Z,48.44
2023-03-18T14:04:32.253Z,47.01
2023-03-18T14:07:20.865Z,47.47
2023-03-18T14:10:20.455Z,47.02
2023-03-18T14:13:29.618Z,48.33
2023-03-18T14:16:20.378Z,48.16
2023-03-18T14:19:14.089Z,48.67
2023-03-18T14:22:08.878Z,49.90
2023-03-18T14:25:22.038Z,50.47
2023-03-18T14:28:25.819Z,50.59
2023-03-18T14:31:27.527Z,50.06
2023-03-18T14:34:33.512Z,50.21
2023-03-18T14:37:27.808Z,49.03
2023-03-18T14:40:23.237Z,48.46
2023-03-18T14:43:12.642Z,48.93
2023-03-18T14:46:04.039Z,50.53
2023-03-18T14:48:54.798Z,51.82
2023-03-18T14:51:42.441Z,51.17
2023-03-18T14:54:33.796Z,51.74
2023-03-18T14:57:22.935Z,51.90
2023-03-18T15:00:15.494Z,51.16
2023-03-18T15:03:05.490Z,51.55
2023-03-18T15:05:58.292Z,50.91
2023-03-18T15:08:50.449Z,52.07
2023-03-18T15:11:39.894Z,52.06
2023-03-18T15:14:30.046Z,51.54
2023-03-18T15:17:17.880Z,50.90
2023-03-18T15:20:05.567Z,50.80
2023-03-18T15:22:54.269Z,51.91
2023-03-18T15:25:42.622Z,51.75
2023-03-18T15:28:30.244Z,52.58
2023-03-18T15:31:26.297Z,51.63
2023-03-18T15:34:18.618Z,51.61
2023-03-18T15:37:24.564Z,52.59
2023-03-18T15:40:28.976Z,53.31
2023-03-18T15:43:21.008Z,55.03
2023-03-18T15:46:14.949Z,54.04
2023-03-18T15:49:05.592Z,54.43
2023-03-18T15:51:59.875Z,55.19
2023-03-18T15:54:49.683Z,55.23
2023-03-18T15:57:40.226Z,56.93
2023-03-18T16:00:27.093Z,57.52
2023-03-18T16:03:22.366Z,58.54
2023-03-18T16:06:10.851Z,58.69
2023-03-18T16:08:57.421Z,59.29
2023-03-18T16:11:47.398Z,59.77
2023-03-18T16:14:39.495Z,61.17
2023-03-18T16:17:26.864Z,61.56
2023-03-18T16:20:18.766Z,63.16
2023-03-18T16:23:06.319Z,63.09
2023-03-18T16:25:56.250Z,64.27
2023-03-18T16:28:45.490Z,64.13
2023-03-18T16:31:34.573Z,64.86
2023-03-18T16:34:22.471Z,66.01
2023-03-18T16:37:20.672Z,66.88
2023-03-18T16:40:16.158Z,68.64
2023-03-18T16:43:02.935Z,67.26
2023-03-18T16:45:50.702Z,67.90
2023-03-18T16:48:39.078Z,68.46
2023-03-18T16:51:26.356Z,69.93
2023-03-18T16:54:21.223Z,70.55
2023-03-18T16:57:15.724Z,72.19
2023-03-18T17:00:05.848Z,72.86
2023-03-18T17:02:53.797Z,74.42
2023-03-18T17:05:41.620Z,73.84
2023-03-18T17:08:28.528Z,74.89
2023-03-18T17:11:19.303Z,75.78
2023-03-18T17:14:07.325Z,77.61
2023-03-18T17:16:54.279Z,79.31
2023-03-18T17:19:41.367Z,77.64
2023-03-18T17:22:31.120Z,78.92
2023-03-18T17:25:18.101Z,81.28
2023-03-18T17:28:07.069Z,80.28
2023-03-18T17:30:53.621Z,81.41
2023-03-18T17:33:40.496Z,81.08
2023-03-18T17:36:27.725Z,81.65
2023-03-18T17:39:16.036Z,80.78
2023-03-18T17:42:02.871Z,82.51
2023-03-18T17:44:49.891Z,81.12
2023-03-18T17:47:36.853Z,82.03
2023-03-18T17:50:23.845Z,81.86
2023-03-18T17:53:30.562Z,81.89
2023-03-18T17:56:22.985Z,83.20
2023-03-18T17:59:15.485Z,83.79
2023-03-18T18:02:02.684Z,84.59
2023-03-18T18:04:49.058Z,84.92
2023-03-18T18:07:36.462Z,86.62
2023-03-18T18:10:29.834Z,87.14
2023-03-18T18:13:20.119Z,87.53
2023-03-18T18:16:10.597Z,86.89
2023-03-18T18:18:58.271Z,87.65
2023-03-18T18:21:46.409Z,88.93
2023-03-18T18:24:33.522Z,90.01
2023-03-18T18:27:20.958Z,90.76
2023-03-18T18:30:14.614Z,93.40
2023-03-18T18:33:01.623Z,92.73
2023-03-18T18:35:47.966Z,92.40
2023-03-18T18:38:34.801Z,93.15
2023-03-18T18:41:21.770Z,95.05
2023-03-18T18:44:08.761Z,96.72
2023-03-18T18:46:57.367Z,95.88
2023-03-18T18:49:44.034Z,96.00
2023-03-18T18:52:32.436Z,96.96
2023-03-18T18:55:19.138Z,95.25
2023-03-18T18:58:06.003Z,95.65
2023-03-18T19:00:52.961Z,95.29
2023-03-18T19:03:43.671Z,95.36
2023-03-18T19:06:32.223Z,94.26
2023-03-18T19:09:21.130Z,92.54
2023-03-18T19:12:15.561Z,92.55
2023-03-18T19:15:02.632Z,91.15
2023-03-18T19:17:49.337Z,91.28
2023-03-18T19:20:37.407Z,92.14
2023-03-18T19:23:28.063Z,93.11
2023-03-18T19:26:16.559Z,92.66
2023-03-18T19:29:03.528Z,92.33
2023-03-18T19:31:50.440Z,91.07
2023-03-18T19:34:37.445Z,92.20
2023-03-18T19:37:27.406Z,93.39
2023-03-18T19:40:24.434Z,92.88
2023-03-18T19:43:17.826Z,92.95
2023-03-18T19:46:04.992Z,94.40
2023-03-18T19:48:51.969Z,94.95
2023-03-18T19:51:38.642Z,94.54
2023-03-18T19:54:31.581Z,94.32
2023-03-18T19:57:21.790Z,94.26
2023-03-18T20:00:22.040Z,94.47
2023-03-18T20:03:13.971Z,94.76
2023-03-18T20:06:01.797Z,94.97
2023-03-18T20:08:48.335Z,94.07
2023-03-18T20:11:36.818Z,96.12
2023-03-18T20:14:27.239Z,96.06
2023-03-18T20:17:29.265Z,95.48
2023-03-18T20:20:18.186Z,95.11
2023-03-18T20:23:07.650Z,95.29
2023-03-18T20:25:54.688Z,96.19
2023-03-18T20:28:45.643Z,95.69
2023-03-18T20:31:33.484Z,95.23
2023-03-18T20:34:20.010Z,94.38
2023-03-18T20:37:08.453Z,93.59
2023-03-18T20:39:55.489Z,92.25
2023-03-18T20:42:42.657Z,91.04
2023-03-18T20:45:30.870Z,88.65
2023-03-18T20:48:18.172Z,88.58
2023-03-18T20:51:05.627Z,88.11
2023-03-18T20:53:52.217Z,88.73
2023-03-18T20:56:38.923Z,88.12
2023-03-18T20:59:25.734Z,88.39
2023-03-18T21:02:32.747Z,88.01
2023-03-18T21:05:20.506Z,88.96
2023-03-18T21:08:07.546Z,91.04
2023-03-18T21:10:54.989Z,91.40
2023-03-18T21:13:41.878Z,89.54
2023-03-18T21:16:28.446Z,91.66
2023-03-18T21:19:16.559Z,87.86
2023-03-18T21:22:03.551Z,87.66
2023-03-18T21:24:51.065Z,86.58
2023-03-18T21:27:38.262Z,86.13
2023-03-18T21:30:25.614Z,84.47
2023-03-18T21:33:21.696Z,86.44
2023-03-18T21:36:11.379Z,86.03
2023-03-18T21:38:58.164Z,87.28
2023-03-18T21:41:44.899Z,86.81
2023-03-18T21:44:31.640Z,86.19
2023-03-18T21:47:20.983Z,85.80
2023-03-18T21:50:08.351Z,84.40
2023-03-18T21:52:56.621Z,85.80
2023-03-18T21:55:43.380Z,85.63
2023-03-18T21:58:30.377Z,85.34
2023-03-18T22:01:24.659Z,84.46
2023-03-18T22:04:13.112Z,82.86
2023-03-18T22:07:00.047Z,82.25
2023-03-18T22:09:48.251Z,82.63
2023-03-18T22:12:35.553Z,82.71
2023-03-18T22:15:38.400Z,82.70
2023-03-18T22:18:25.639Z,81.77
2023-03-18T22:21:17.042Z,83.29
2023-03-18T22:24:03.865Z,83.03
2023-03-18T22:26:51.927Z,83.50
2023-03-18T22:29:38.754Z,86.57
2023-03-18T22:32:36.600Z,85.72
2023-03-18T22:35:24.983Z,86.32
2023-03-18T22:38:14.886Z,86.56
2023-03-18T22:41:01.828Z,86.54
2023-03-18T22:43:50.555Z,87.29
2023-03-18T22:46:37.509Z,89.04
2023-03-18T22:49:24.308Z,89.00
2023-03-18T22:52:19.561Z,88.98
2023-03-18T22:55:17.962Z,89.13
2023-03-18T22:58:04.737Z,89.99
2023-03-18T23:00:55.556Z,90.20
2023-03-18T23:03:44.038Z,89.15
2023-03-18T23:06:34.885Z,89.93
2023-03-18T23:09:21.888Z,89.38
2023-03-18T23:12:13.939Z,90.13
2023-03-18T23:15:00.665Z,91.14
2023-03-18T23:17:49.358Z,89.91
2023-03-18T23:20:37.901Z,91.43
2023-03-18T23:23:24.930Z,93.41
2023-03-18T23:26:12.051Z,93.80
2023-03-18T23:28:58.434Z,93.79
2023-03-18T23:31:45.470Z,96.59
2023-03-18T23:34:33.610Z,94.29
2023-03-18T23:37:20.267Z,97.25
2023-03-18T23:40:07.801Z,97.90
2023-03-18T23:42:55.240Z,99.01
2023-03-18T23:45:42.065Z,97.93
2023-03-18T23:48:29.001Z,97.19
2023-03-18T23:51:17.207Z,97.37
2023-03-18T23:54:03.927Z,98.74
2023-03-18T23:56:50.815Z,98.42
2023-03-18T23:59:37.929Z,99.44
